Time;durP1;ratioP1;P1;durP2;ratioP2;P2;SDS_P1;SDS_P2;PMS_P1;PMS_P2;Temp;Humidity;BMP_temperature;BMP_pressure;BME280_temperature;BME280_humidity;BME280_pressure;Samples;Min_cycle;Max_cycle;Signal;HPM_P1;HPM_P2
2021/07/13 00:02:21;;;;;;;119.25;108.40;;;;;;;19.13;100.00;100910.69;4960941;28;20067;-77
2021/07/13 00:04:48;;;;;;;132.60;121.47;;;;;;;19.17;100.00;100917.16;4973597;28;20563;-78
2021/07/13 00:07:15;;;;;;;112.88;102.78;;;;;;;19.18;100.00;100899.13;4967575;28;20118;-81
2021/07/13 00:09:42;;;;;;;141.68;129.23;;;;;;;18.93;100.00;100907.81;4962671;28;20137;-81
2021/07/13 00:12:10;;;;;;;125.35;114.65;;;;;;;19.12;100.00;100908.22;4972487;28;20133;-77
2021/07/13 00:14:37;;;;;;;117.50;107.13;;;;;;;18.75;100.00;100915.19;4966999;28;20039;-77
2021/07/13 00:17:06;;;;;;;107.97;97.78;;;;;;;19.01;100.00;100907.38;4966006;28;20058;-77
2021/07/13 00:19:34;;;;;;;110.40;100.38;;;;;;;18.96;100.00;100907.31;4970500;28;20039;-77
2021/07/13 00:22:01;;;;;;;108.97;98.97;;;;;;;18.94;100.00;100902.19;4971132;28;20089;-79
2021/07/13 00:24:28;;;;;;;105.82;96.18;;;;;;;19.02;100.00;100903.59;4964737;28;20043;-77
2021/07/13 00:26:54;;;;;;;109.80;99.90;;;;;;;19.01;100.00;100893.91;4964982;28;20047;-78
2021/07/13 00:29:21;;;;;;;105.05;95.47;;;;;;;18.69;100.00;100901.94;4961663;28;20113;-79
2021/07/13 00:31:48;;;;;;;105.15;95.20;;;;;;;18.79;100.00;100893.16;4970484;28;20118;-78
2021/07/13 00:34:16;;;;;;;111.30;101.25;;;;;;;18.82;100.00;100895.34;4974795;28;20121;-77
2021/07/13 00:36:43;;;;;;;101.50;92.30;;;;;;;18.76;100.00;100889.94;4968495;28;20075;-78
2021/07/13 00:39:09;;;;;;;96.15;87.65;;;;;;;18.69;100.00;100893.88;4969803;28;20129;-79
2021/07/13 00:41:37;;;;;;;104.32;94.97;;;;;;;18.71;100.00;100894.44;4970267;28;20055;-78
2021/07/13 00:44:04;;;;;;;108.60;98.30;;;;;;;18.51;100.00;100895.03;4964606;28;20058;-77
2021/07/13 00:46:31;;;;;;;112.10;101.63;;;;;;;18.57;100.00;100888.66;4966899;28;20051;-79
2021/07/13 00:49:03;;;;;;;108.60;98.47;;;;;;;18.58;100.00;100892.97;4965975;28;20051;-77
2021/07/13 00:51:31;;;;;;;116.78;106.13;;;;;;;18.40;100.00;100890.66;4971035;28;20053;-78
2021/07/13 00:53:58;;;;;;;108.15;98.38;;;;;;;18.41;100.00;100887.69;4966497;28;20113;-83
2021/07/13 00:56:25;;;;;;;113.07;102.78;;;;;;;18.29;100.00;100887.84;4965978;28;20057;-78
2021/07/13 00:58:51;;;;;;;122.38;111.55;;;;;;;18.55;100.00;100896.19;4973733;28;20047;-80
2021/07/13 01:01:18;;;;;;;110.68;100.55;;;;;;;18.41;100.00;100898.44;4972607;28;20055;-77
2021/07/13 01:03:45;;;;;;;118.20;107.32;;;;;;;18.19;100.00;100897.69;4969224;28;20054;-78
2021/07/13 01:06:15;;;;;;;109.28;99.28;;;;;;;18.12;100.00;100894.34;4971746;28;20484;-78
2021/07/13 01:08:54;;;;;;;110.95;100.85;;;;;;;18.30;100.00;100894.03;4983114;28;20058;-79
2021/07/13 01:11:27;;;;;;;124.30;112.80;;;;;;;18.18;100.00;100896.84;4980274;28;20116;-78
2021/07/13 01:14:02;;;;;;;123.20;112.25;;;;;;;17.89;100.00;100890.06;4979908;28;20050;-80
2021/07/13 01:16:34;;;;;;;121.60;110.50;;;;;;;18.21;100.00;100890.97;4976865;28;20050;-80
2021/07/13 01:19:14;;;;;;;108.13;98.03;;;;;;;18.33;100.00;100888.13;4976271;28;20051;-80
2021/07/13 01:21:45;;;;;;;111.47;101.07;;;;;;;18.37;100.00;100891.97;4973003;28;20089;-80
2021/07/13 01:24:39;;;;;;;103.93;94.18;;;;;;;18.43;100.00;100892.84;4977821;28;20128;-78
2021/07/13 01:27:33;;;;;;;100.53;91.50;;;;;;;18.41;100.00;100894.94;4977607;28;20121;-78
2021/07/13 01:30:06;;;;;;;106.30;96.53;;;;;;;18.41;100.00;100893.06;4969655;28;20575;-83
2021/07/13 01:32:35;;;;;;;106.55;96.35;;;;;;;18.38;100.00;100896.25;4982904;28;20065;-79
2021/07/13 01:35:05;;;;;;;109.20;99.07;;;;;;;18.22;100.00;100894.50;4985128;28;20459;-77
2021/07/13 01:37:33;;;;;;;106.72;96.93;;;;;;;18.24;100.00;100903.09;4970228;28;20057;-77
2021/07/13 01:40:01;;;;;;;102.15;92.88;;;;;;;17.95;100.00;100894.44;4976265;28;20129;-78
2021/07/13 01:42:30;;;;;;;109.75;99.75;;;;;;;18.16;100.00;100893.63;4978668;28;20051;-80
2021/07/13 01:45:00;;;;;;;97.90;89.30;;;;;;;18.43;100.00;100890.13;4976131;28;20069;-77
2021/07/13 01:47:29;;;;;;;92.80;84.60;;;;;;;18.34;100.00;100897.84;4973404;28;20060;-78
2021/07/13 01:49:58;;;;;;;93.28;84.85;;;;;;;18.36;100.00;100893.00;4978534;28;20050;-78
2021/07/13 01:52:26;;;;;;;104.47;94.95;;;;;;;18.29;100.00;100898.59;4977588;28;20062;-77
2021/07/13 01:54:53;;;;;;;94.60;85.88;;;;;;;18.27;100.00;100898.03;4972390;28;20054;-79
2021/07/13 01:57:20;;;;;;;94.97;86.53;;;;;;;18.17;100.00;100895.22;4975462;28;20133;-78
2021/07/13 01:59:49;;;;;;;103.78;94.35;;;;;;;18.00;100.00;100898.00;4981503;28;20062;-77
2021/07/13 02:02:17;;;;;;;110.20;100.35;;;;;;;17.97;100.00;100901.19;5087511;23;20506;-80
2021/07/13 02:04:47;;;;;;;106.85;97.43;;;;;;;17.90;100.00;100892.50;4990862;28;20046;-78
2021/07/13 02:07:15;;;;;;;114.97;104.85;;;;;;;17.74;100.00;100904.91;5001236;28;20047;-79
2021/07/13 02:09:44;;;;;;;102.43;93.20;;;;;;;17.90;100.00;100905.13;4989144;28;20055;-78
2021/07/13 02:12:11;;;;;;;95.57;87.03;;;;;;;17.94;100.00;100908.94;4984380;28;20447;-78
2021/07/13 02:14:38;;;;;;;103.13;93.88;;;;;;;17.75;100.00;100908.41;4990301;28;20112;-80
2021/07/13 02:17:05;;;;;;;104.32;95.15;;;;;;;17.89;100.00;100906.19;4994322;28;20530;-80
2021/07/13 02:19:32;;;;;;;107.72;98.57;;;;;;;17.93;100.00;100901.94;4998447;28;20111;-80
2021/07/13 02:22:00;;;;;;;118.05;107.65;;;;;;;17.92;100.00;100901.13;4998352;28;20058;-79
2021/07/13 02:24:27;;;;;;;97.90;88.40;;;;;;;17.96;100.00;100912.19;4999112;28;20124;-78
2021/07/13 02:26:59;;;;;;;105.63;96.15;;;;;;;17.71;100.00;100913.47;4987616;28;20053;-80
2021/07/13 02:29:29;;;;;;;;;;;;;;;17.73;100.00;100922.09;4997997;28;20062;-80
2021/07/13 02:31:58;;;;;;;110.28;100.40;;;;;;;17.24;100.00;100918.41;4992509;28;19926;-77
2021/07/13 02:34:28;;;;;;;105.75;96.32;;;;;;;17.38;100.00;100920.50;4991022;28;20042;-77
2021/07/13 02:36:59;;;;;;;124.45;114.28;;;;;;;17.81;100.00;100915.50;4989051;28;20051;-79
2021/07/13 02:39:28;;;;;;;115.28;104.93;;;;;;;17.61;100.00;100911.44;4987067;28;20073;-81
2021/07/13 02:41:55;;;;;;;125.10;114.60;;;;;;;17.69;100.00;100906.69;4997105;28;20129;-81
2021/07/13 02:44:24;;;;;;;106.85;97.50;;;;;;;17.88;100.00;100908.03;5002516;28;20061;-78
2021/07/13 02:46:52;;;;;;;110.35;101.03;;;;;;;18.03;100.00;100910.94;5000248;28;20050;-80
2021/07/13 02:49:21;;;;;;;107.30;98.07;;;;;;;17.85;100.00;100908.53;4994887;28;20047;-77
2021/07/13 02:51:50;;;;;;;132.90;121.55;;;;;;;17.43;100.00;100911.72;4992911;28;20053;-78
2021/07/13 02:54:21;;;;;;;149.98;137.82;;;;;;;17.24;100.00;100913.84;4991546;28;20478;-79
2021/07/13 02:56:51;;;;;;;114.80;104.60;;;;;;;17.74;100.00;100902.22;4990620;28;20050;-78
2021/07/13 02:59:20;;;;;;;138.45;127.03;;;;;;;17.63;100.00;100909.31;4991545;28;20069;-82
2021/07/13 03:01:48;;;;;;;148.48;137.00;;;;;;;17.47;100.00;100912.84;4991376;28;20529;-78
2021/07/13 03:04:15;;;;;;;131.43;120.13;;;;;;;17.59;100.00;100915.44;4999483;28;20062;-79
2021/07/13 03:06:43;;;;;;;135.13;123.90;;;;;;;17.83;100.00;100908.00;4991332;28;20046;-80
2021/07/13 03:09:10;;;;;;;113.13;103.32;;;;;;;17.88;100.00;100910.72;4991357;28;20136;-78
2021/07/13 03:11:37;;;;;;;117.22;107.30;;;;;;;18.04;100.00;100903.69;4989406;28;20104;-78
2021/07/13 03:14:09;;;;;;;128.40;117.30;;;;;;;17.74;100.00;100912.16;4989528;28;20043;-79
2021/07/13 03:16:37;;;;;;;117.20;107.43;;;;;;;18.07;100.00;100904.00;4991250;28;20510;-80
2021/07/13 03:19:05;;;;;;;140.43;129.63;;;;;;;18.26;100.00;100899.09;4994889;28;20128;-80
2021/07/13 03:21:36;;;;;;;113.45;104.18;;;;;;;18.31;100.00;100901.03;4991429;28;20054;-80
2021/07/13 03:24:06;;;;;;;131.32;120.68;;;;;;;18.31;100.00;100907.22;4997191;28;20046;-78
2021/07/13 03:26:37;;;;;;;129.70;119.28;;;;;;;18.45;100.00;100906.81;4994221;28;20051;-81
2021/07/13 03:29:07;;;;;;;134.65;123.95;;;;;;;18.30;100.00;100912.84;4996089;28;20146;-80
2021/07/13 03:31:35;;;;;;;158.20;145.98;;;;;;;18.23;100.00;100904.97;4998235;28;20083;-79
2021/07/13 03:34:04;;;;;;;132.30;121.50;;;;;;;18.31;100.00;100907.22;4989386;28;20045;-77
2021/07/13 03:36:32;;;;;;;127.75;117.57;;;;;;;18.48;100.00;100906.31;4994117;28;20042;-77
2021/07/13 03:38:59;;;;;;;147.40;135.77;;;;;;;18.22;100.00;100906.06;4990527;28;20051;-80
2021/07/13 03:41:28;;;;;;;124.88;114.47;;;;;;;18.49;100.00;100907.94;4990988;28;20046;-79
2021/07/13 03:43:56;;;;;;;114.82;104.93;;;;;;;18.45;100.00;100901.44;4989303;28;20579;-79
2021/07/13 03:46:24;;;;;;;121.55;111.38;;;;;;;18.61;100.00;100905.06;4988016;28;20124;-81
2021/07/13 03:48:54;;;;;;;120.57;111.25;;;;;;;18.83;100.00;100905.06;4996453;28;20430;-78
2021/07/13 03:51:27;;;;;;;118.07;108.45;;;;;;;18.97;100.00;100895.47;4984940;28;20058;-84
2021/07/13 03:53:53;;;;;;;122.90;112.88;;;;;;;19.01;100.00;100901.16;4993595;28;20137;-79
2021/07/13 03:56:20;;;;;;;133.48;123.28;;;;;;;18.93;100.00;100897.88;4986248;28;20441;-80
2021/07/13 03:58:47;;;;;;;134.48;124.45;;;;;;;18.89;100.00;100901.34;4988095;28;20132;-78
2021/07/13 04:01:14;;;;;;;114.85;105.75;;;;;;;19.06;100.00;100904.69;4992343;28;20039;-78
2021/07/13 04:03:42;;;;;;;110.88;102.18;;;;;;;19.18;100.00;100902.66;4997260;28;20050;-80
2021/07/13 04:06:09;;;;;;;144.43;133.73;;;;;;;18.98;100.00;100900.59;4994302;28;20544;-80
2021/07/13 04:08:36;;;;;;;119.80;110.60;;;;;;;19.09;100.00;100901.50;4989738;28;20113;-79
2021/07/13 04:11:03;;;;;;;106.15;97.80;;;;;;;19.14;100.00;100909.59;4988712;28;20046;-81
2021/07/13 04:13:29;;;;;;;113.57;104.57;;;;;;;19.35;100.00;100905.16;4994899;28;20901;-78
2021/07/13 04:15:56;;;;;;;122.45;113.03;;;;;;;19.49;100.00;100902.03;4989809;28;20050;-77
2021/07/13 04:18:23;;;;;;;128.45;118.95;;;;;;;19.55;100.00;100899.09;4989131;28;20049;-81
2021/07/13 04:20:51;;;;;;;147.60;137.30;;;;;;;19.50;100.00;100900.97;4994376;28;20054;-79
2021/07/13 04:23:18;;;;;;;149.13;137.77;;;;;;;19.59;100.00;100894.00;4995222;28;20452;-79
2021/07/13 04:25:46;;;;;;;164.90;152.82;;;;;;;22.49;100.00;100891.47;4992704;28;20057;-79
2021/07/13 04:28:13;;;;;;;148.32;137.82;;;;;;;23.45;100.00;100876.28;4990541;28;20050;-83
2021/07/13 04:30:40;;;;;;;73.80;68.72;;;;;;;22.85;100.00;100859.50;4990790;28;20045;-77
2021/07/13 04:33:07;;;;;;;84.70;78.40;;;;;;;20.54;100.00;100878.44;4983782;28;20058;-78
2021/07/13 04:35:34;;;;;;;102.68;95.07;;;;;;;20.15;100.00;100886.16;4990704;28;20050;-78
2021/07/13 04:38:02;;;;;;;102.18;94.20;;;;;;;20.24;100.00;100884.59;4985887;28;20050;-79
2021/07/13 04:40:28;;;;;;;97.15;89.75;;;;;;;20.26;100.00;100887.00;4996857;28;20046;-78
2021/07/13 04:42:55;;;;;;;102.25;94.57;;;;;;;20.29;100.00;100887.28;4984659;28;20050;-78
2021/07/13 04:45:22;;;;;;;111.53;103.43;;;;;;;20.23;100.00;100887.53;4993815;28;20085;-78
2021/07/13 04:47:49;;;;;;;111.78;103.47;;;;;;;20.47;100.00;100898.66;4996787;28;20198;-78
2021/07/13 04:50:16;;;;;;;106.65;99.05;;;;;;;20.38;100.00;100894.84;4992235;28;20128;-77
2021/07/13 04:52:43;;;;;;;115.75;107.40;;;;;;;20.45;100.00;100901.59;4989813;28;20050;-78
2021/07/13 04:55:12;;;;;;;115.18;107.07;;;;;;;20.41;100.00;100907.81;4992284;28;20054;-76
2021/07/13 04:57:39;;;;;;;115.45;107.45;;;;;;;20.50;100.00;100907.00;4983978;28;20112;-78
2021/07/13 05:00:08;;;;;;;101.45;94.35;;;;;;;20.73;100.00;100908.44;4988504;28;20050;-79
2021/07/13 05:02:35;;;;;;;105.00;97.78;;;;;;;20.83;100.00;100904.91;4994855;28;20054;-78
2021/07/13 05:05:01;;;;;;;99.13;91.78;;;;;;;21.02;100.00;100899.78;5002522;28;20157;-78
2021/07/13 05:07:28;;;;;;;96.72;89.45;;;;;;;21.14;100.00;100900.31;4989421;28;20122;-77
2021/07/13 05:09:55;;;;;;;112.93;104.88;;;;;;;21.31;100.00;100905.41;4988737;28;20042;-78
2021/07/13 05:12:23;;;;;;;101.82;94.10;;;;;;;21.47;100.00;100895.41;4988985;28;20133;-77
2021/07/13 05:14:50;;;;;;;94.57;87.18;;;;;;;21.19;100.00;100903.00;4990508;28;20134;-79
2021/07/13 05:17:17;;;;;;;101.47;93.72;;;;;;;21.57;100.00;100900.78;4991501;28;20613;-79
2021/07/13 05:19:45;;;;;;;94.35;86.93;;;;;;;21.65;100.00;100902.94;4992231;28;20050;-77
2021/07/13 05:22:12;;;;;;;97.82;90.30;;;;;;;21.70;100.00;100899.41;4986618;28;20078;-81
2021/07/13 05:24:39;;;;;;;105.05;96.55;;;;;;;21.82;100.00;100894.50;4988039;28;20039;-79
2021/07/13 05:27:06;;;;;;;106.65;98.47;;;;;;;21.86;100.00;100900.16;4991781;28;20120;-78
2021/07/13 05:29:34;;;;;;;104.90;97.25;;;;;;;22.11;100.00;100901.94;4993343;28;20046;-79
2021/07/13 05:32:01;;;;;;;102.68;94.53;;;;;;;22.24;100.00;100895.13;4992140;28;20055;-77
2021/07/13 05:34:28;;;;;;;93.63;86.65;;;;;;;22.31;100.00;100891.03;4992494;28;20063;-79
2021/07/13 05:36:54;;;;;;;94.50;87.30;;;;;;;22.40;100.00;100889.34;4993329;28;20050;-78
2021/07/13 05:39:21;;;;;;;91.85;84.85;;;;;;;22.58;100.00;100890.56;4986882;28;20046;-78
2021/07/13 05:41:48;;;;;;;95.20;88.45;;;;;;;22.70;100.00;100890.22;4991120;28;20549;-78
2021/07/13 05:44:15;;;;;;;90.28;83.63;;;;;;;22.85;100.00;100886.59;4987300;28;20490;-78
2021/07/13 05:46:43;;;;;;;93.75;86.95;;;;;;;23.05;100.00;100896.44;5002924;28;20103;-77
2021/07/13 05:49:10;;;;;;;96.32;89.22;;;;;;;23.03;100.00;100894.03;4995039;28;20058;-79
2021/07/13 05:51:36;;;;;;;90.78;83.97;;;;;;;23.17;100.00;100888.75;5005306;28;20039;-79
2021/07/13 05:54:03;;;;;;;95.57;88.78;;;;;;;23.37;100.00;100889.66;4997364;28;20038;-78
2021/07/13 05:56:30;;;;;;;93.70;86.78;;;;;;;23.51;100.00;100888.66;4994061;28;20068;-79
2021/07/13 05:58:57;;;;;;;87.43;81.05;;;;;;;23.79;100.00;100888.91;5001470;28;20137;-78
2021/07/13 06:01:24;;;;;;;80.68;74.47;;;;;;;23.87;100.00;100890.97;4999900;28;20478;-79
2021/07/13 06:03:53;;;;;;;75.85;70.35;;;;;;;24.02;100.00;100881.03;4991194;28;20510;-77
2021/07/13 06:06:20;;;;;;;83.47;77.28;;;;;;;24.39;100.00;100880.25;4998303;28;20403;-79
2021/07/13 06:08:47;;;;;;;71.22;65.72;;;;;;;24.56;100.00;100880.53;4999047;28;20058;-78
2021/07/13 06:11:14;;;;;;;71.80;66.30;;;;;;;24.59;100.00;100870.97;5000372;28;20123;-78
2021/07/13 06:13:40;;;;;;;72.10;66.65;;;;;;;24.77;100.00;100880.19;4994584;28;20038;-77
2021/07/13 06:16:08;;;;;;;68.63;62.95;;;;;;;25.00;100.00;100879.25;4994234;28;20061;-79
2021/07/13 06:18:34;;;;;;;72.30;67.15;;;;;;;25.04;100.00;100876.75;4989740;28;20046;-79
2021/07/13 06:21:03;;;;;;;71.50;66.20;;;;;;;25.06;100.00;100872.63;5002673;28;20107;-78
2021/07/13 06:23:29;;;;;;;66.55;61.65;;;;;;;25.12;100.00;100881.50;4992668;28;20050;-79
2021/07/13 06:25:56;;;;;;;71.07;66.15;;;;;;;25.38;100.00;100870.16;4986679;28;20046;-78
2021/07/13 06:28:25;;;;;;;60.80;56.58;;;;;;;25.77;100.00;100866.94;4996127;28;20108;-79
2021/07/13 06:30:52;;;;;;;53.63;49.63;;;;;;;25.94;100.00;100867.13;4994803;28;20426;-79
2021/07/13 06:33:18;;;;;;;70.45;65.72;;;;;;;25.83;100.00;100868.47;4984532;28;20058;-79
2021/07/13 06:35:46;;;;;;;59.47;55.15;;;;;;;25.97;100.00;100866.53;4996606;28;20181;-79
2021/07/13 06:38:15;;;;;;;57.78;53.65;;;;;;;26.21;100.00;100852.66;4993299;28;20129;-79
2021/07/13 06:40:41;;;;;;;67.55;62.75;;;;;;;26.45;100.00;100862.44;4992547;28;20058;-78
2021/07/13 06:43:08;;;;;;;70.10;64.82;;;;;;;26.44;100.00;100860.81;4991157;28;20143;-78
2021/07/13 06:45:35;;;;;;;54.17;50.15;;;;;;;26.68;100.00;100850.44;4991547;28;20422;-78
2021/07/13 06:48:02;;;;;;;51.40;47.35;;;;;;;26.67;100.00;100856.22;4996542;28;20116;-78
2021/07/13 06:50:28;;;;;;;50.72;47.15;;;;;;;26.58;100.00;100847.97;5002368;28;20049;-79
2021/07/13 06:52:55;;;;;;;49.83;46.20;;;;;;;26.58;100.00;100860.81;4994391;28;20042;-78
2021/07/13 06:55:23;;;;;;;51.40;47.50;;;;;;;26.70;100.00;100853.66;4995871;28;20376;-77
2021/07/13 06:57:50;;;;;;;51.83;47.75;;;;;;;26.69;100.00;100864.91;4993943;28;20108;-79
2021/07/13 07:00:17;;;;;;;51.25;47.42;;;;;;;26.58;100.00;100858.88;4993949;28;20049;-78
2021/07/13 07:02:44;;;;;;;56.00;51.58;;;;;;;26.67;100.00;100859.75;4988920;28;20539;-78
2021/07/13 07:05:11;;;;;;;62.28;57.65;;;;;;;27.00;100.00;100861.38;5006910;28;20041;-77
2021/07/13 07:07:46;;;;;;;75.03;69.35;;;;;;;27.39;100.00;100866.88;4996396;28;20112;-79
2021/07/13 07:10:14;;;;;;;61.17;56.67;;;;;;;27.42;100.00;100864.63;4992542;28;20053;-78
2021/07/13 07:12:43;;;;;;;81.60;75.90;;;;;;;27.71;100.00;100864.84;4993457;28;20571;-79
2021/07/13 07:15:11;;;;;;;59.85;55.28;;;;;;;27.79;100.00;100853.19;4986606;28;20042;-79
2021/07/13 07:17:45;;;;;;;61.97;56.67;;;;;;;27.59;100.00;100860.00;4991898;28;20046;-77
2021/07/13 07:20:13;;;;;;;55.65;51.65;;;;;;;27.60;100.00;100858.13;4997374;28;20042;-78
2021/07/13 07:22:40;;;;;;;56.90;52.67;;;;;;;27.17;100.00;100865.03;4987332;28;20376;-77
2021/07/13 07:25:09;;;;;;;58.75;54.65;;;;;;;27.36;100.00;100862.03;4992270;28;20116;-79
2021/07/13 07:27:36;;;;;;;63.90;59.60;;;;;;;27.89;100.00;100873.91;4986713;28;20113;-78
2021/07/13 07:30:07;;;;;;;62.45;58.03;;;;;;;27.86;100.00;100869.88;4983715;28;20129;-79
2021/07/13 07:32:34;;;;;;;79.45;74.28;;;;;;;28.17;100.00;100866.25;4988724;28;20070;-79
2021/07/13 07:35:00;;;;;;;55.85;51.92;;;;;;;27.71;100.00;100864.84;4987236;28;20117;-77
2021/07/13 07:37:28;;;;;;;56.28;52.53;;;;;;;27.48;100.00;100866.09;4994913;28;20109;-77
2021/07/13 07:39:54;;;;;;;75.57;70.68;;;;;;;27.88;100.00;100863.31;4985645;28;20460;-78
2021/07/13 07:42:21;;;;;;;50.90;47.28;;;;;;;27.49;100.00;100860.31;4997917;28;20464;-78
2021/07/13 07:44:48;;;;;;;54.97;51.47;;;;;;;27.83;100.00;100859.59;5000101;28;20057;-78
2021/07/13 07:47:16;;;;;;;65.53;61.17;;;;;;;27.84;100.00;100847.59;4991869;28;20042;-78
2021/07/13 07:49:43;;;;;;;62.15;58.33;;;;;;;28.25;100.00;100854.50;5002984;28;20057;-78
2021/07/13 07:52:10;;;;;;;62.38;58.42;;;;;;;28.66;100.00;100858.69;4992011;28;20473;-79
2021/07/13 07:54:37;;;;;;;43.78;40.63;;;;;;;28.53;100.00;100860.47;4986502;28;20043;-77
2021/07/13 07:57:04;;;;;;;50.63;46.78;;;;;;;28.69;100.00;100857.22;4990552;28;20475;-78
2021/07/13 07:59:31;;;;;;;45.17;42.38;;;;;;;28.36;100.00;100859.66;4991204;28;20101;-78
2021/07/13 08:01:58;;;;;;;39.40;36.90;;;;;;;27.97;100.00;100855.94;4988929;28;20062;-79
2021/07/13 08:04:26;;;;;;;40.65;37.65;;;;;;;28.07;100.00;100861.09;4989327;28;20042;-78
2021/07/13 08:06:53;;;;;;;43.95;40.75;;;;;;;28.30;100.00;100865.28;4987534;28;20061;-78
2021/07/13 08:09:19;;;;;;;49.35;45.85;;;;;;;28.37;100.00;100856.59;4992439;28;20057;-79
2021/07/13 08:11:46;;;;;;;45.28;41.88;;;;;;;28.23;100.00;100858.66;4993051;28;20063;-79
2021/07/13 08:14:13;;;;;;;49.05;45.55;;;;;;;28.75;100.00;100859.47;4991312;28;20053;-79
2021/07/13 08:16:41;;;;;;;42.10;38.90;;;;;;;28.76;100.00;100863.78;4991323;28;20155;-77
2021/07/13 08:19:08;;;;;;;43.20;40.30;;;;;;;28.37;100.00;100863.97;4992211;28;20070;-79
2021/07/13 08:21:36;;;;;;;50.20;46.50;;;;;;;28.82;100.00;100858.16;4988790;28;20049;-78
2021/07/13 08:24:03;;;;;;;40.88;38.05;;;;;;;28.96;100.00;100858.78;4991139;28;20042;-78
2021/07/13 08:26:31;;;;;;;45.03;41.53;;;;;;;29.40;100.00;100868.41;4993852;28;20050;-79
2021/07/13 08:28:58;;;;;;;37.05;34.25;;;;;;;28.44;100.00;100861.59;4993380;28;20046;-77
2021/07/13 08:31:25;;;;;;;45.58;41.83;;;;;;;29.44;100.00;100857.59;4989569;28;20049;-78
2021/07/13 08:33:52;;;;;;;37.17;34.38;;;;;;;28.77;100.00;100857.19;4991394;28;20051;-78
2021/07/13 08:36:18;;;;;;;39.83;36.83;;;;;;;28.94;100.00;100858.28;4991291;28;20050;-79
2021/07/13 08:38:47;;;;;;;50.85;46.85;;;;;;;29.33;100.00;100853.66;4991190;28;20050;-78
2021/07/13 08:41:14;;;;;;;34.67;32.05;;;;;;;29.06;100.00;100852.16;4991470;28;20066;-79
2021/07/13 08:43:41;;;;;;;39.95;36.97;;;;;;;29.64;100.00;100850.63;4990276;28;20050;-78
2021/07/13 08:46:09;;;;;;;40.33;37.13;;;;;;;28.83;100.00;100859.75;4991304;28;20038;-78
2021/07/13 08:48:40;;;;;;;45.20;41.70;;;;;;;29.43;100.00;100856.81;4990750;28;20049;-78
2021/07/13 08:51:08;;;;;;;44.00;40.33;;;;;;;29.92;100.00;100850.91;4992371;28;20505;-78
2021/07/13 08:53:35;;;;;;;43.28;40.05;;;;;;;30.10;100.00;100859.78;4990938;28;20050;-77
2021/07/13 08:56:03;;;;;;;39.08;36.17;;;;;;;29.60;100.00;100860.59;4993382;28;20057;-77
2021/07/13 08:58:30;;;;;;;38.45;35.60;;;;;;;29.45;100.00;100862.75;4991474;28;20694;-78
2021/07/13 09:00:57;;;;;;;39.15;36.35;;;;;;;29.50;100.00;100867.22;4989990;28;20043;-78
2021/07/13 09:03:25;;;;;;;37.10;34.40;;;;;;;29.74;100.00;100865.84;4990990;28;20512;-79
2021/07/13 09:05:52;;;;;;;38.42;35.63;;;;;;;29.85;100.00;100869.81;4991913;28;20408;-78
2021/07/13 09:08:22;;;;;;;38.00;34.72;;;;;;;29.89;100.00;100859.78;4991924;28;20046;-77
2021/07/13 09:11:18;;;;;;;41.53;38.60;;;;;;;29.75;100.00;100864.72;4990949;28;20046;-78
2021/07/13 09:13:46;;;;;;;42.50;39.17;;;;;;;29.93;100.00;100863.47;4990565;28;20054;-79
2021/07/13 09:16:14;;;;;;;40.42;36.58;;;;;;;30.09;100.00;100863.66;4990319;28;20046;-78
2021/07/13 09:18:43;;;;;;;45.33;41.00;;;;;;;30.27;100.00;100864.34;4991838;28;20054;-79
2021/07/13 09:21:19;;;;;;;40.10;37.10;;;;;;;30.45;100.00;100860.31;4995033;28;20051;-77
2021/07/13 09:24:09;;;;;;;34.83;32.13;;;;;;;30.42;100.00;100854.72;4992217;28;20054;-79
2021/07/13 09:26:46;;;;;;;41.53;38.67;;;;;;;29.56;100.00;100860.47;4996347;28;20062;-78
2021/07/13 09:29:34;;;;;;;41.33;38.50;;;;;;;30.24;100.00;100862.28;4996568;28;20138;-79
2021/07/13 09:32:21;;;;;;;38.70;35.78;;;;;;;30.15;100.00;100856.06;4992511;28;20050;-79
2021/07/13 09:34:49;;;;;;;34.03;31.48;;;;;;;30.00;100.00;100855.50;4999411;28;20098;-78
2021/07/13 09:37:21;;;;;;;41.88;39.03;;;;;;;29.83;100.00;100859.16;4996421;28;20490;-77
2021/07/13 09:40:10;;;;;;;32.97;30.73;;;;;;;30.91;100.00;100852.13;4994649;28;20046;-79
2021/07/13 09:42:47;;;;;;;34.42;32.00;;;;;;;30.46;100.00;100850.16;4993393;28;20490;-79
2021/07/13 09:45:29;;;;;;;33.70;31.40;;;;;;;30.14;100.00;100847.03;4993626;28;20057;-78
2021/07/13 09:47:58;;;;;;;33.90;31.55;;;;;;;29.86;100.00;100855.75;4992547;28;20137;-78
2021/07/13 09:50:40;;;;;;;33.67;31.23;;;;;;;30.97;100.00;100848.03;4993963;28;20038;-79
2021/07/13 09:53:09;;;;;;;30.88;28.33;;;;;;;30.62;100.00;100842.88;4994780;28;20046;-79
2021/07/13 09:55:38;;;;;;;32.25;30.02;;;;;;;30.92;100.00;100842.75;4992886;28;20414;-79
2021/07/13 09:58:13;;;;;;;29.80;27.67;;;;;;;31.62;100.00;100845.41;4993375;28;20046;-79
2021/07/13 10:00:40;;;;;;;32.42;29.85;;;;;;;31.63;100.00;100847.81;4994078;28;20069;-78
2021/07/13 10:03:08;;;;;;;31.17;28.67;;;;;;;31.62;100.00;100838.00;4995619;28;20089;-79
2021/07/13 10:05:37;;;;;;;30.33;28.23;;;;;;;31.33;100.00;100846.44;4994022;28;20514;-79
2021/07/13 10:08:04;;;;;;;30.25;27.67;;;;;;;31.62;100.00;100843.50;4993238;28;20050;-78
2021/07/13 10:10:31;;;;;;;29.70;27.58;;;;;;;31.75;100.00;100844.25;4996500;28;20060;-78
2021/07/13 10:12:59;;;;;;;30.48;28.38;;;;;;;32.33;100.00;100838.50;4996341;28;20400;-78
2021/07/13 10:15:27;;;;;;;33.13;30.70;;;;;;;31.76;100.00;100829.38;4993515;28;20038;-79
2021/07/13 10:17:55;;;;;;;34.17;31.58;;;;;;;32.23;100.00;100831.56;4995116;28;20054;-78
2021/07/13 10:20:24;;;;;;;34.65;32.20;;;;;;;32.22;100.00;100835.44;4993240;28;20411;-78
2021/07/13 10:22:54;;;;;;;32.28;30.13;;;;;;;32.13;100.00;100832.03;4991789;28;20431;-78
2021/07/13 10:25:34;;;;;;;34.63;32.22;;;;;;;32.28;100.00;100839.53;4990889;28;20046;-78
2021/07/13 10:28:01;;;;;;;30.02;27.60;;;;;;;32.27;100.00;100831.66;4992624;28;20050;-78
2021/07/13 10:30:42;;;;;;;29.63;27.65;;;;;;;32.97;93.23;100828.41;4992377;28;20057;-79
2021/07/13 10:33:29;;;;;;;30.45;27.77;;;;;;;32.77;94.84;100828.31;4992502;28;20406;-78
2021/07/13 10:35:57;;;;;;;28.55;26.52;;;;;;;30.91;100.00;100824.72;4995147;28;20176;-78
2021/07/13 10:38:25;;;;;;;28.67;26.13;;;;;;;32.69;93.47;100820.25;4990718;28;20112;-79
2021/07/13 10:40:54;;;;;;;28.35;26.55;;;;;;;32.51;94.39;100820.56;4990671;28;20050;-79
2021/07/13 10:43:22;;;;;;;27.02;25.02;;;;;;;32.22;85.30;100823.66;4994762;28;20470;-77
2021/07/13 10:46:06;;;;;;;26.55;24.45;;;;;;;32.79;78.01;100817.75;4991713;28;20081;-79
2021/07/13 10:48:33;;;;;;;26.67;24.30;;;;;;;32.58;68.78;100812.50;4992916;28;20057;-79
2021/07/13 10:51:03;;;;;;;27.98;26.17;;;;;;;33.12;86.75;100810.31;4993135;28;20419;-79
2021/07/13 10:53:38;;;;;;;26.55;24.65;;;;;;;33.46;89.11;100817.00;4995985;28;20116;-79
2021/07/13 10:56:13;;;;;;;25.92;24.13;;;;;;;33.55;83.03;100814.88;4996928;28;20054;-78
2021/07/13 10:58:51;;;;;;;27.75;25.75;;;;;;;33.83;83.88;100811.94;4993477;28;20050;-79
2021/07/13 11:01:26;;;;;;;28.58;26.40;;;;;;;33.19;100.00;100805.75;4994528;28;20049;-78
2021/07/13 11:04:13;;;;;;;27.10;25.20;;;;;;;33.29;80.93;100808.00;4994665;28;20077;-77
2021/07/13 11:06:59;;;;;;;28.85;26.15;;;;;;;32.79;95.90;100804.00;4991315;28;20054;-78